createdAt,value
2018-10-18T00:00:31.289Z,30.60
2018-10-18T00:03:06.012Z,36.07
2018-10-18T00:05:34.364Z,26.70
2018-10-18T00:08:03.091Z,31.60
2018-10-18T00:10:31.287Z,30.67
2018-10-18T00:13:07.343Z,31.70
2018-10-18T00:15:36.679Z,30.27
2018-10-18T00:21:01.415Z,32.37
2018-10-18T00:23:37.185Z,28.03
2018-10-18T00:26:06.765Z,29.00
2018-10-18T00:28:40.483Z,29.77
2018-10-18T00:34:25.556Z,30.40
2018-10-18T00:36:55.518Z,28.67
2018-10-18T00:39:25.584Z,34.07
2018-10-18T00:41:53.834Z,29.37
2018-10-18T00:44:21.779Z,29.90
2018-10-18T00:46:49.728Z,25.53
2018-10-18T00:49:18.133Z,27.57
2018-10-18T00:51:47.055Z,41.17
2018-10-18T00:54:15.199Z,31.10
2018-10-18T00:56:43.215Z,39.37
2018-10-18T00:59:12.584Z,23.67
2018-10-18T01:01:51.926Z,34.27
2018-10-18T01:04:20.418Z,28.03
2018-10-18T01:06:49.564Z,30.30
2018-10-18T01:09:18.011Z,26.67
2018-10-18T01:14:48.439Z,32.80
2018-10-18T01:17:16.767Z,27.53
2018-10-18T01:19:58.972Z,30.40
2018-10-18T01:22:27.103Z,29.20
2018-10-18T01:24:55.458Z,29.90
2018-10-18T01:30:13.562Z,28.03
2018-10-18T01:32:41.503Z,37.53
2018-10-18T01:37:55.745Z,29.10
2018-10-18T01:40:24.763Z,32.13
2018-10-18T01:42:54.211Z,29.77
2018-10-18T01:45:22.041Z,29.40
2018-10-18T01:47:50.318Z,30.00
2018-10-18T01:50:23.875Z,27.47
2018-10-18T01:52:52.269Z,36.17
2018-10-18T01:55:20.461Z,31.93
2018-10-18T01:57:49.307Z,29.13
2018-10-18T02:00:18.418Z,31.77
2018-10-18T02:02:46.314Z,28.70
2018-10-18T02:05:14.560Z,33.27
2018-10-18T02:07:46.021Z,29.70
2018-10-18T02:10:14.118Z,27.83
2018-10-18T02:12:45.844Z,27.13
2018-10-18T02:15:13.867Z,29.00
2018-10-18T02:17:41.692Z,32.30
2018-10-18T02:20:10.494Z,28.37
2018-10-18T02:22:41.271Z,30.93
2018-10-18T02:25:10.322Z,30.03
2018-10-18T02:27:39.421Z,32.57
2018-10-18T02:30:08.691Z,29.37
2018-10-18T02:32:36.737Z,29.13
2018-10-18T02:35:08.298Z,31.10
2018-10-18T02:37:42.273Z,38.43
2018-10-18T02:40:11.990Z,34.53
2018-10-18T02:42:40.818Z,29.50
2018-10-18T02:45:14.308Z,28.43
2018-10-18T02:47:48.375Z,28.83
2018-10-18T02:50:16.952Z,29.47
2018-10-18T02:52:49.330Z,30.13
2018-10-18T02:55:19.313Z,27.83
2018-10-18T02:57:48.414Z,31.17
2018-10-18T03:00:16.640Z,31.13
2018-10-18T03:02:51.122Z,38.27
2018-10-18T03:08:17.625Z,32.20
2018-10-18T03:10:45.627Z,31.73
2018-10-18T03:13:13.530Z,31.53
2018-10-18T03:15:41.196Z,32.77
2018-10-18T03:18:08.993Z,30.80
2018-10-18T03:20:38.025Z,29.53
2018-10-18T03:23:15.549Z,28.50
2018-10-18T03:25:43.446Z,27.10
2018-10-18T03:28:11.204Z,28.17
2018-10-18T03:30:47.625Z,37.50
2018-10-18T03:33:15.881Z,27.13
2018-10-18T03:35:43.610Z,32.30
2018-10-18T03:38:11.335Z,27.70
2018-10-18T03:40:39.047Z,26.70
2018-10-18T03:43:11.244Z,33.87
2018-10-18T03:45:39.072Z,35.63
2018-10-18T03:48:10.360Z,30.20
2018-10-18T03:50:39.355Z,37.30
2018-10-18T03:53:07.133Z,28.80
2018-10-18T03:58:35.478Z,29.93
2018-10-18T04:01:03.371Z,37.23
2018-10-18T04:03:31.154Z,39.30
2018-10-18T04:06:00.006Z,37.07
2018-10-18T04:08:28.294Z,36.97
2018-10-18T04:10:56.369Z,48.50
2018-10-18T04:13:24.165Z,30.30
2018-10-18T04:15:54.004Z,31.10
2018-10-18T04:18:22.972Z,30.97
2018-10-18T04:21:01.173Z,33.10
2018-10-18T04:23:32.890Z,33.33
2018-10-18T04:26:01.522Z,36.67
2018-10-18T04:31:06.630Z,31.93
2018-10-18T04:33:45.228Z,43.63
2018-10-18T04:36:26.088Z,33.20
2018-10-18T04:39:03.036Z,33.67
2018-10-18T04:41:31.253Z,39.33
2018-10-18T04:43:58.915Z,31.90
2018-10-18T04:46:26.894Z,33.83
2018-10-18T04:48:56.177Z,41.20
2018-10-18T04:51:25.674Z,30.50
2018-10-18T04:54:10.049Z,40.20
2018-10-18T04:56:38.069Z,36.67
2018-10-18T05:01:49.542Z,34.37
2018-10-18T05:04:17.559Z,34.20
2018-10-18T05:06:45.711Z,31.43
2018-10-18T05:09:18.059Z,37.37
2018-10-18T05:11:46.773Z,36.93
2018-10-18T05:14:14.639Z,37.80
2018-10-18T05:16:43.656Z,39.93
2018-10-18T05:19:11.684Z,47.30
2018-10-18T05:21:40.289Z,39.07
2018-10-18T05:24:09.525Z,42.07
2018-10-18T05:26:37.509Z,42.80
2018-10-18T05:29:05.796Z,43.50
2018-10-18T05:31:33.881Z,43.20
2018-10-18T05:34:07.888Z,36.40
2018-10-18T05:36:35.979Z,39.30
2018-10-18T05:39:07.127Z,38.93
2018-10-18T05:41:37.247Z,41.43
2018-10-18T05:44:06.805Z,34.90
2018-10-18T05:46:34.759Z,41.47
2018-10-18T05:49:03.119Z,36.33
2018-10-18T05:51:32.300Z,33.40
2018-10-18T05:54:01.710Z,35.87
2018-10-18T05:56:30.058Z,38.60
2018-10-18T05:58:57.914Z,34.90
2018-10-18T06:01:27.074Z,35.53
2018-10-18T06:06:49.192Z,36.23
2018-10-18T06:09:28.167Z,40.13
2018-10-18T06:11:56.572Z,51.17
2018-10-18T06:14:31.207Z,43.13
2018-10-18T06:17:00.316Z,37.03
2018-10-18T06:19:29.805Z,38.53
2018-10-18T06:21:58.534Z,38.33
2018-10-18T06:24:28.468Z,39.03
2018-10-18T06:26:59.854Z,45.40
2018-10-18T06:29:28.542Z,36.63
2018-10-18T06:31:57.527Z,34.10
2018-10-18T06:34:25.886Z,40.13
2018-10-18T06:36:55.781Z,44.00
2018-10-18T06:39:24.372Z,43.33
2018-10-18T06:41:53.391Z,42.93
2018-10-18T06:44:25.768Z,38.60
2018-10-18T06:46:54.462Z,39.03
2018-10-18T06:49:24.145Z,35.70
2018-10-18T06:51:52.281Z,42.93
2018-10-18T06:54:29.758Z,43.50
2018-10-18T06:56:59.817Z,50.53
2018-10-18T06:59:27.991Z,49.97
2018-10-18T07:01:56.864Z,46.93
2018-10-18T07:04:25.912Z,54.57
2018-10-18T07:06:54.367Z,49.50
2018-10-18T07:09:33.766Z,59.33
2018-10-18T07:12:02.746Z,50.30
2018-10-18T07:14:31.904Z,60.30
2018-10-18T07:17:00.049Z,55.53
2018-10-18T07:19:28.294Z,59.33
2018-10-18T07:21:56.493Z,59.87
2018-10-18T07:24:24.908Z,58.53
2018-10-18T07:26:52.934Z,61.00
2018-10-18T07:29:26.006Z,63.17
2018-10-18T07:31:54.280Z,61.77
2018-10-18T07:34:22.676Z,75.33
2018-10-18T07:36:56.145Z,67.83
2018-10-18T07:39:24.259Z,74.90
2018-10-18T07:41:52.141Z,73.70
2018-10-18T07:44:21.117Z,81.93
2018-10-18T07:46:51.215Z,76.60
2018-10-18T07:49:18.889Z,77.17
2018-10-18T07:51:56.952Z,78.10
2018-10-18T07:54:25.101Z,84.03
2018-10-18T07:56:54.339Z,74.53
2018-10-18T07:59:22.455Z,72.67
2018-10-18T08:01:50.335Z,83.53
2018-10-18T08:04:20.409Z,73.77
2018-10-18T08:06:53.210Z,75.17
2018-10-18T08:09:21.942Z,80.47
2018-10-18T08:11:49.761Z,80.80
2018-10-18T08:14:17.704Z,73.80
2018-10-18T08:16:48.630Z,76.27
2018-10-18T08:19:17.337Z,77.47
2018-10-18T08:21:45.133Z,75.30
2018-10-18T08:24:14.227Z,73.97
2018-10-18T08:26:43.155Z,80.10
2018-10-18T08:29:12.493Z,77.10
2018-10-18T08:31:40.652Z,87.70
2018-10-18T08:34:08.361Z,88.03
2018-10-18T08:36:37.233Z,81.23
2018-10-18T08:39:07.739Z,86.80
2018-10-18T08:41:36.207Z,80.00
2018-10-18T08:44:23.127Z,80.47
2018-10-18T08:46:55.607Z,99.60
2018-10-18T08:49:23.588Z,93.77
2018-10-18T08:51:51.352Z,81.13
2018-10-18T08:54:20.089Z,95.27
2018-10-18T08:56:50.528Z,89.10
2018-10-18T08:59:19.164Z,82.33
2018-10-18T09:01:47.155Z,92.30
2018-10-18T09:04:16.262Z,83.00
2018-10-18T09:06:46.068Z,89.10
2018-10-18T09:09:14.182Z,88.47
2018-10-18T09:11:42.134Z,92.07
2018-10-18T09:14:13.200Z,88.50
2018-10-18T09:16:42.288Z,101.10
2018-10-18T09:19:13.935Z,89.00
2018-10-18T09:21:41.923Z,81.60
2018-10-18T09:24:09.835Z,91.00
2018-10-18T09:26:37.841Z,94.57
2018-10-18T09:29:10.905Z,92.40
2018-10-18T09:31:42.096Z,94.07
2018-10-18T09:34:14.119Z,95.60
2018-10-18T09:36:42.359Z,94.17
2018-10-18T09:39:16.185Z,92.23
2018-10-18T09:41:44.448Z,98.10
2018-10-18T09:44:15.625Z,88.10
2018-10-18T09:46:44.060Z,93.23
2018-10-18T09:49:18.804Z,94.97
2018-10-18T09:51:46.847Z,97.17
2018-10-18T09:54:15.136Z,88.10
2018-10-18T09:56:43.685Z,110.00
2018-10-18T09:59:12.569Z,94.60
2018-10-18T10:01:46.405Z,98.73
2018-10-18T10:04:18.579Z,87.00
2018-10-18T10:06:55.162Z,95.50
2018-10-18T10:09:23.200Z,90.53
2018-10-18T10:11:51.902Z,86.87
2018-10-18T10:14:20.387Z,87.07
2018-10-18T10:16:48.375Z,92.30
2018-10-18T10:19:20.191Z,75.23
2018-10-18T10:21:48.735Z,79.67
2018-10-18T10:24:18.220Z,84.07
2018-10-18T10:26:47.818Z,81.13
2018-10-18T10:29:33.041Z,69.20
2018-10-18T10:32:00.852Z,74.07
2018-10-18T10:34:28.518Z,78.73
2018-10-18T10:36:56.757Z,66.63
2018-10-18T10:39:25.606Z,73.70
2018-10-18T10:41:53.697Z,70.80
2018-10-18T10:44:22.697Z,72.33
2018-10-18T10:46:50.886Z,72.20
2018-10-18T10:49:18.711Z,73.77
2018-10-18T10:51:46.746Z,78.37
2018-10-18T10:54:14.622Z,82.37
2018-10-18T10:57:00.144Z,70.73
2018-10-18T10:59:28.701Z,82.63
2018-10-18T11:01:56.939Z,76.87
2018-10-18T11:04:24.745Z,69.40
2018-10-18T11:07:07.976Z,94.43
2018-10-18T11:09:36.203Z,76.50
2018-10-18T11:12:05.036Z,75.33
2018-10-18T11:14:49.271Z,76.87
2018-10-18T11:17:28.950Z,74.87
2018-10-18T11:20:01.961Z,69.70
2018-10-18T11:22:32.072Z,71.27
2018-10-18T11:25:00.737Z,72.30
2018-10-18T11:27:28.448Z,73.90
2018-10-18T11:29:56.976Z,82.13
2018-10-18T11:32:26.178Z,73.37
2018-10-18T11:34:54.134Z,66.63
2018-10-18T11:37:23.264Z,66.33
2018-10-18T11:39:51.799Z,57.87
2018-10-18T11:42:20.642Z,65.03
2018-10-18T11:44:50.153Z,58.90
2018-10-18T11:47:18.131Z,64.23
2018-10-18T11:49:46.948Z,55.93
2018-10-18T11:52:14.908Z,62.70
2018-10-18T11:55:06.187Z,58.53
2018-10-18T11:57:34.955Z,52.30
2018-10-18T12:00:03.035Z,56.00
2018-10-18T12:02:30.811Z,46.27
2018-10-18T12:05:03.792Z,62.90
2018-10-18T12:07:33.277Z,53.07
2018-10-18T12:10:05.885Z,49.40
2018-10-18T12:12:36.129Z,49.37
2018-10-18T12:15:11.547Z,51.37
2018-10-18T12:17:41.221Z,55.57
2018-10-18T12:20:17.662Z,51.27
2018-10-18T12:22:45.445Z,52.23
2018-10-18T12:25:18.603Z,49.27
2018-10-18T12:27:53.124Z,57.10
2018-10-18T12:30:21.039Z,47.83
2018-10-18T12:32:53.178Z,51.13
2018-10-18T12:35:21.126Z,44.07
2018-10-18T12:37:53.954Z,45.60
2018-10-18T12:40:27.772Z,63.37
2018-10-18T12:42:58.629Z,42.70
2018-10-18T12:45:31.132Z,53.27
2018-10-18T12:47:58.952Z,45.87
2018-10-18T12:50:26.909Z,45.83
2018-10-18T12:52:54.700Z,45.67
2018-10-18T12:55:22.351Z,51.13
2018-10-18T12:57:52.283Z,46.57
2018-10-18T13:00:21.554Z,40.57
2018-10-18T13:02:49.646Z,45.40
2018-10-18T13:05:17.926Z,45.30
2018-10-18T13:07:46.432Z,49.57
2018-10-18T13:10:24.814Z,41.43
2018-10-18T13:12:53.328Z,42.73
2018-10-18T13:15:29.015Z,55.70
2018-10-18T13:17:57.738Z,56.97
2018-10-18T13:20:30.268Z,53.23
2018-10-18T13:22:58.360Z,48.77
2018-10-18T13:25:26.426Z,55.53
2018-10-18T13:27:56.858Z,59.23
2018-10-18T13:30:28.210Z,53.60
2018-10-18T13:32:58.642Z,59.77
2018-10-18T13:35:28.702Z,50.67
2018-10-18T13:37:56.501Z,56.37
2018-10-18T13:40:25.105Z,55.07
2018-10-18T13:42:54.370Z,52.20
2018-10-18T13:45:22.292Z,59.77
2018-10-18T13:47:56.394Z,51.73
2018-10-18T13:50:28.314Z,54.60
2018-10-18T13:52:56.981Z,50.63
2018-10-18T13:55:25.795Z,58.47
2018-10-18T13:57:53.544Z,46.03
2018-10-18T14:00:27.735Z,49.40
2018-10-18T14:02:57.549Z,48.80
2018-10-18T14:05:29.238Z,46.77
2018-10-18T14:07:57.215Z,42.77
2018-10-18T14:10:32.823Z,41.83
2018-10-18T14:13:07.706Z,48.57
2018-10-18T14:15:36.281Z,40.10
2018-10-18T14:18:06.991Z,47.43
2018-10-18T14:20:36.029Z,42.77
2018-10-18T14:23:04.453Z,43.70
2018-10-18T14:25:32.296Z,42.70
2018-10-18T14:27:59.944Z,43.63
2018-10-18T14:30:46.559Z,49.37
2018-10-18T14:33:27.238Z,53.10
2018-10-18T14:36:13.741Z,41.20
2018-10-18T14:38:41.892Z,43.73
2018-10-18T14:41:11.399Z,42.97
2018-10-18T14:43:43.062Z,48.93
2018-10-18T14:46:19.172Z,33.93
2018-10-18T14:48:53.669Z,35.13
2018-10-18T14:51:24.114Z,33.37
2018-10-18T14:53:54.263Z,46.63
2018-10-18T14:56:23.659Z,34.30
2018-10-18T14:59:06.143Z,34.87
2018-10-18T15:01:35.796Z,36.73
2018-10-18T15:04:05.561Z,34.90
2018-10-18T15:06:34.162Z,46.00
2018-10-18T15:09:03.335Z,36.03
2018-10-18T15:11:31.671Z,32.30
2018-10-18T15:17:02.156Z,32.20
2018-10-18T15:19:30.789Z,32.60
2018-10-18T15:22:00.273Z,32.43
2018-10-18T15:27:11.479Z,28.87
2018-10-18T15:29:53.910Z,31.63
2018-10-18T15:32:21.726Z,30.33
2018-10-18T15:34:50.680Z,36.77
2018-10-18T15:37:18.570Z,28.60
2018-10-18T15:40:03.951Z,33.27
2018-10-18T15:42:34.427Z,34.70
2018-10-18T15:45:06.790Z,30.53
2018-10-18T15:50:37.503Z,27.70
2018-10-18T15:53:05.638Z,30.83
2018-10-18T15:55:34.331Z,30.50
2018-10-18T15:58:08.806Z,35.17
2018-10-18T16:03:47.555Z,29.53
2018-10-18T16:06:16.074Z,41.03
2018-10-18T16:08:45.423Z,30.93
2018-10-18T16:11:19.350Z,29.33
2018-10-18T16:13:49.567Z,27.07
2018-10-18T16:16:19.333Z,33.83
2018-10-18T16:18:49.433Z,35.70
2018-10-18T16:21:30.856Z,31.63
2018-10-18T16:23:59.314Z,32.60
2018-10-18T16:29:28.063Z,39.93
2018-10-18T16:32:14.554Z,34.37
2018-10-18T16:34:42.627Z,33.73
2018-10-18T16:37:10.926Z,34.97
2018-10-18T16:39:39.652Z,31.93
2018-10-18T16:42:31.899Z,34.63
2018-10-18T16:45:14.051Z,32.80
2018-10-18T16:47:42.522Z,36.00
2018-10-18T16:50:10.516Z,34.40
2018-10-18T16:52:38.215Z,35.30
2018-10-18T16:55:06.712Z,39.23
2018-10-18T16:57:37.605Z,31.70
2018-10-18T17:00:07.056Z,30.63
2018-10-18T17:02:35.116Z,36.07
2018-10-18T17:05:03.457Z,33.17
2018-10-18T17:07:36.466Z,39.80
2018-10-18T17:10:04.907Z,34.60
2018-10-18T17:12:33.632Z,38.43
2018-10-18T17:15:13.586Z,42.70
2018-10-18T17:17:43.925Z,45.47
2018-10-18T17:23:04.247Z,33.80
2018-10-18T17:25:32.454Z,47.43
2018-10-18T17:28:08.023Z,36.37
2018-10-18T17:30:42.610Z,40.77
2018-10-18T17:36:13.156Z,38.50
2018-10-18T17:38:51.152Z,45.67
2018-10-18T17:41:23.450Z,43.57
2018-10-18T17:43:51.417Z,39.70
2018-10-18T17:46:19.653Z,50.30
2018-10-18T17:48:54.853Z,32.80
2018-10-18T17:51:25.281Z,36.47
2018-10-18T17:53:53.001Z,39.57
2018-10-18T17:56:20.608Z,34.77
2018-10-18T17:58:48.563Z,40.80
2018-10-18T18:01:23.027Z,37.60
2018-10-18T18:03:51.967Z,36.73
2018-10-18T18:06:28.933Z,31.60
2018-10-18T18:11:25.388Z,41.97
2018-10-18T18:13:58.415Z,36.70
2018-10-18T18:16:29.331Z,40.27
2018-10-18T18:18:59.055Z,33.97
2018-10-18T18:21:27.226Z,35.30
2018-10-18T18:23:55.442Z,38.97
2018-10-18T18:26:45.045Z,49.83
2018-10-18T18:29:08.346Z,36.63
2018-10-18T18:31:37.735Z,41.83
2018-10-18T18:34:06.741Z,43.33
2018-10-18T18:36:34.545Z,37.27
2018-10-18T18:39:02.501Z,43.07
2018-10-18T18:41:31.779Z,37.33
2018-10-18T18:44:00.678Z,37.67
2018-10-18T18:46:28.743Z,34.00
2018-10-18T18:49:06.659Z,47.83
2018-10-18T18:51:34.986Z,36.00
2018-10-18T18:54:02.817Z,40.07
2018-10-18T18:56:30.654Z,40.40
2018-10-18T18:58:59.500Z,40.43
2018-10-18T19:04:30.097Z,37.67
2018-10-18T19:06:58.034Z,40.03
2018-10-18T19:09:44.492Z,42.47
2018-10-18T19:15:26.062Z,39.60
2018-10-18T19:17:54.105Z,42.30
2018-10-18T19:26:28.888Z,37.40
2018-10-18T19:28:56.774Z,36.60
2018-10-18T19:37:19.544Z,35.10
2018-10-18T19:39:48.025Z,39.03
2018-10-18T19:42:18.460Z,39.57
2018-10-18T19:47:47.631Z,38.53
2018-10-18T19:50:15.621Z,48.93
2018-10-18T19:52:52.589Z,33.50
2018-10-18T19:55:20.652Z,43.00
2018-10-18T19:57:48.415Z,45.73
2018-10-18T20:00:21.984Z,42.60
2018-10-18T20:02:50.069Z,40.77
2018-10-18T20:08:21.203Z,35.90
2018-10-18T20:11:19.036Z,53.67
2018-10-18T20:16:40.351Z,36.57
2018-10-18T20:22:13.418Z,40.90
2018-10-18T20:24:41.842Z,39.57
2018-10-18T20:30:16.314Z,42.30
2018-10-18T20:32:57.055Z,45.50
2018-10-18T20:35:27.770Z,41.77
2018-10-18T20:40:59.835Z,46.13
2018-10-18T20:46:38.972Z,41.97
2018-10-18T20:52:11.097Z,44.03
2018-10-18T20:54:39.465Z,35.23
2018-10-18T20:57:30.264Z,39.60
2018-10-18T21:12:24.620Z,28.90
2018-10-18T21:21:13.767Z,31.70
2018-10-18T21:29:50.655Z,30.17
2018-10-18T21:32:18.876Z,31.93
2018-10-18T21:35:06.066Z,29.17
2018-10-18T21:40:38.085Z,29.10
2018-10-18T21:46:18.045Z,27.70
2018-10-18T21:48:58.906Z,22.37
2018-10-18T21:54:31.424Z,22.10
2018-10-18T21:57:00.714Z,21.50
2018-10-18T21:59:30.432Z,21.10
2018-10-18T22:01:58.247Z,17.63
2018-10-18T22:07:30.403Z,13.90
2018-10-18T22:13:01.192Z,13.87
2018-10-18T22:15:35.894Z,12.63
2018-10-18T22:18:10.967Z,11.53
2018-10-18T22:21:08.626Z,11.90
2018-10-18T22:23:36.495Z,16.07
2018-10-18T22:26:04.664Z,14.80
2018-10-18T22:28:55.426Z,15.03
2018-10-18T22:31:29.971Z,10.90
2018-10-18T22:37:00.253Z,13.93
2018-10-18T22:39:34.286Z,13.37
2018-10-18T22:42:02.486Z,11.73
2018-10-18T22:44:37.562Z,10.17
2018-10-18T22:47:06.290Z,16.80
2018-10-18T22:49:34.383Z,16.80
2018-10-18T22:52:02.161Z,13.20
2018-10-18T22:54:30.370Z,13.87
2018-10-18T22:57:03.412Z,11.47
2018-10-18T22:59:31.328Z,11.50
2018-10-18T23:01:59.112Z,11.73
2018-10-18T23:04:37.587Z,12.30
2018-10-18T23:07:05.454Z,10.23
2018-10-18T23:12:39.183Z,10.90
2018-10-18T23:15:10.232Z,9.87
2018-10-18T23:17:41.346Z,14.30
2018-10-18T23:26:16.003Z,10.00
2018-10-18T23:28:45.530Z,9.63
2018-10-18T23:31:13.285Z,8.07
2018-10-18T23:34:03.047Z,12.13
2018-10-18T23:36:31.178Z,18.03
2018-10-18T23:39:09.921Z,6.73
2018-10-18T23:41:38.303Z,13.70
2018-10-18T23:44:24.778Z,10.20
2018-10-18T23:46:52.854Z,8.87
2018-10-18T23:49:45.919Z,8.13
2018-10-18T23:52:14.177Z,12.17
2018-10-18T23:57:45.199Z,10.17
